Terminal Aerodrome Forecast
Issued by NWS

Home | Current Version | Previous Version | Text Only | Print | Product List | Glossary On
Versions: 1 2 3 4 5 6 7 8 9 10 11 12
000
FTUS44 KLZK 260500
TAFHOT
TAF
KHOT 260533Z 2606/2706 18008G18KT P6SM SCT250 WS020/21038KT
     FM261200 17008KT P6SM BKN020
     FM261800 15007KT P6SM OVC015
     FM270000 15012KT P6SM VCSH OVC012=

USA.gov is the U.S. government's official web portal to all federal, state and local government web resources and services.